Details From LSZH - Zurich
To TNCM - St Maarten - Princess Juliana Intl
Flight Number -
Tags Generated
Created
Modified
Stats Distance 3,874 nm / 7,174 km
Max Altitude 0 ft / 0 m
Waypoints 5
Social Downloads 1
Likes 0
Share VATSIM

Download

Looking for another format? Having issues loading an existing format? Contact us
Advertisement - Login to hide

Notes

Generated

Route

LSZH SANCE ERIGA MNOLO TNCM

ID Type Via Altitude Latitude Longitude Leg Dist Tot Dist Heading (true) Name
O LSZH APT - 0 ft / 0 m 47.45894˚ 8.53748˚ - 0 nm - -
SANCE FIX - 0 ft / 0 m 47.26667˚ 2.74167˚ 236 nm 236 nm 269° / 265° -
ERIGA FIX - 0 ft / 0 m 46.86000˚ -2.36306˚ 210 nm 446 nm 265° / 261° -
MNOLO FIX - 0 ft / 0 m 18.34556˚ -62.80211˚ 3401 nm 3848 nm 261° / 225° -
O TNCM APT - 0 ft / 0 m 18.03937˚ -63.11961˚ 25 nm 3873 nm 225° / 225° -

Altitude Profile

Advertisement - Login to hide

Weather


0- 5 10 15 20 25 30 35+ Temperature / ° C

Clouds and Precipitation
Forecast for 2017-12-18 18:00 UTC. Updated a few seconds ago

Ground ~20,000 ft ~40,000 ft Winds

LSZH

Details ICAO LSZH (ZRH)
Name Zurich
Region Switzerland
Timezone Europe/Zurich (UTC+1.0)
Stats Elevation 1,416 ft / 432 m (AMSL)
Location 47.463489° 8.549964°
Runways 3
Magnetic Variation 2.347° E

METAR

LSZH 181520Z 15004KT 9999 SCT014 BKN017 01/M01 Q1023 R88/D BECMG BKN014

Decode

TAF

TAF LSZH 181425Z 1815/1921 16005KT 9999 FEW010 BKN020 TX01/1815Z TNM00/1905Z TX02/1914Z PROB40 TEMPO 1901/1910 3000 -SN BKN007

Decode

Departure Runways

ID Width Length Bearing (true) Bearing (mag) Surface Threshold Offset Overrun Length
10 197 ft / 60 m 8,180 ft / 2,493 m 95.98° 93.63° Concrete 0 ft / 0 m 197 ft / 60 m
14 197 ft / 60 m 10,816 ft / 3,297 m 137.30° 134.95° Concrete 492 ft / 150 m 0 ft / 0 m
16 197 ft / 60 m 12,137 ft / 3,699 m 155.00° 152.65° Concrete 0 ft / 0 m 197 ft / 60 m
28 197 ft / 60 m 8,180 ft / 2,493 m 276.01° 273.66° Concrete 0 ft / 0 m 197 ft / 60 m
32 197 ft / 60 m 10,816 ft / 3,297 m 317.32° 314.97° Concrete 0 ft / 0 m 197 ft / 60 m
34 197 ft / 60 m 12,137 ft / 3,699 m 335.01° 332.66° Concrete 1,542 ft / 470 m 0 ft / 0 m

TNCM

Details ICAO TNCM (SXM)
Name St Maarten - Princess Juliana Intl
Region Caribbean Netherlands, Aruba, Curaçao, Sint Maarten
Timezone Unknown (UTC+0.0)
Stats Elevation 12 ft / 4 m (AMSL)
Location 18.040889° -63.108974°
Runways 1
Magnetic Variation 14.325° W

METAR

TNCM 181500Z 07010KT 030V100 9999 SCT021 29/23 Q1018 A3007 NOSIG

Decode

TAF

TAF TNCM 181137Z 1812/1912 05012KT P6SM -SHRA FEW016 SCT040 FM181430 07017KT P6SM VCSH SCT020 FM182300 07010KT P6SM SCT018

Decode

Destination Runways

ID Width Length Bearing (true) Bearing (mag) Surface Threshold Offset Overrun Length
10 148 ft / 45 m 7,464 ft / 2,275 m 81.43° 95.76° Asphalt 0 ft / 0 m 151 ft / 46 m
28 148 ft / 45 m 7,464 ft / 2,275 m 261.44° 275.77° Asphalt 397 ft / 121 m 0 ft / 0 m

Popular Alternatives